createdAt,value
2023-02-22T00:01:42.915Z,101122.63
2023-02-22T00:04:11.323Z,101119.47
2023-02-22T00:06:38.271Z,101120.28
2023-02-22T00:09:05.306Z,101120.38
2023-02-22T00:11:32.280Z,101115.94
2023-02-22T00:13:59.221Z,101116.09
2023-02-22T00:16:26.955Z,101117.22
2023-02-22T00:18:55.385Z,101110.72
2023-02-22T00:21:23.092Z,101110.88
2023-02-22T00:23:50.591Z,101101.25
2023-02-22T00:26:19.600Z,101107.41
2023-02-22T00:28:48.695Z,101100.78
2023-02-22T00:31:16.140Z,101106.75
2023-02-22T00:33:43.610Z,101096.44
2023-02-22T00:36:13.456Z,101099.94
2023-02-22T00:38:41.973Z,101095.66
2023-02-22T00:41:09.399Z,101093.91
2023-02-22T00:43:36.822Z,101087.66
2023-02-22T00:46:03.994Z,101087.66
2023-02-22T00:48:31.031Z,101089.00
2023-02-22T00:50:57.960Z,101081.28
2023-02-22T00:53:26.715Z,101081.56
2023-02-22T00:55:53.875Z,101082.63
2023-02-22T00:58:21.338Z,101070.69
2023-02-22T01:00:49.599Z,101064.00
2023-02-22T01:03:18.644Z,101069.75
2023-02-22T01:05:46.168Z,101056.41
2023-02-22T01:08:15.655Z,101054.84
2023-02-22T01:10:45.066Z,101058.75
2023-02-22T01:13:13.144Z,101053.78
2023-02-22T01:15:41.939Z,101044.56
2023-02-22T01:18:08.951Z,101040.31
2023-02-22T01:20:36.469Z,101040.97
2023-02-22T01:23:06.717Z,101032.06
2023-02-22T01:25:34.872Z,101037.00
2023-02-22T01:28:05.924Z,101026.94
2023-02-22T01:30:35.390Z,101025.75
2023-02-22T01:33:04.649Z,101017.88
2023-02-22T01:35:33.813Z,101014.19
2023-02-22T01:38:00.874Z,101012.28
2023-02-22T01:40:30.726Z,101014.38
2023-02-22T01:42:59.927Z,101014.63
2023-02-22T01:45:45.218Z,101012.22
2023-02-22T01:48:16.214Z,101011.59
2023-02-22T01:50:47.486Z,101006.72
2023-02-22T01:53:19.263Z,101005.91
2023-02-22T01:55:47.690Z,101003.63
2023-02-22T01:58:16.692Z,100992.31
2023-02-22T02:00:45.855Z,100981.78
2023-02-22T02:03:17.095Z,100983.66
2023-02-22T02:05:45.340Z,100986.16
2023-02-22T02:08:26.062Z,100969.69
2023-02-22T02:10:55.140Z,100965.16
2023-02-22T02:13:22.573Z,100968.59
2023-02-22T02:15:55.135Z,100969.09
2023-02-22T02:18:24.378Z,100971.63
2023-02-22T02:21:24.644Z,100973.38
2023-02-22T02:24:15.641Z,100968.59
2023-02-22T02:27:09.200Z,100970.22
2023-02-22T02:30:18.380Z,100958.69
2023-02-22T02:32:55.807Z,100963.16
2023-02-22T02:35:38.349Z,100957.72
2023-02-22T02:38:13.772Z,100954.28
2023-02-22T02:40:49.377Z,100957.28
2023-02-22T02:43:28.442Z,100952.16
2023-02-22T02:46:04.299Z,100938.84
2023-02-22T02:48:37.610Z,100939.03
2023-02-22T02:51:09.903Z,100938.53
2023-02-22T02:53:41.209Z,100939.22
2023-02-22T02:56:08.354Z,100930.78
2023-02-22T02:58:45.888Z,100939.78
2023-02-22T03:01:17.196Z,100925.69
2023-02-22T03:04:03.384Z,100929.22
2023-02-22T03:06:58.367Z,100927.03
2023-02-22T03:09:40.594Z,100922.56
2023-02-22T03:12:21.015Z,100920.75
2023-02-22T03:15:00.418Z,100917.31
2023-02-22T03:17:41.538Z,100919.63
2023-02-22T03:20:20.935Z,100915.22
2023-02-22T03:22:55.524Z,100910.09
2023-02-22T03:25:28.051Z,100912.75
2023-02-22T03:28:02.990Z,100910.19
2023-02-22T03:30:36.573Z,100902.22
2023-02-22T03:33:09.275Z,100897.16
2023-02-22T03:35:41.531Z,100892.97
2023-02-22T03:38:14.259Z,100892.88
2023-02-22T03:40:44.946Z,100876.69
2023-02-22T03:43:16.068Z,100879.25
2023-02-22T03:45:45.632Z,100882.84
2023-02-22T04:40:09.321Z,100850.38
2023-02-22T05:36:53.179Z,100789.78
2023-02-22T05:50:31.244Z,100795.66
2023-02-22T06:04:52.100Z,100792.69
2023-02-22T06:07:19.238Z,100786.47
2023-02-22T06:09:46.219Z,100778.63
2023-02-22T06:12:13.243Z,100790.75
2023-02-22T06:14:45.287Z,100767.44
2023-02-22T06:22:30.356Z,100767.13
2023-02-22T06:30:44.927Z,100759.06
2023-02-22T07:41:51.425Z,100766.38
2023-02-22T07:47:05.152Z,100786.34
2023-02-22T10:14:38.633Z,100789.63
2023-02-22T10:17:20.267Z,100784.97
2023-02-22T10:19:57.785Z,100784.09
2023-02-22T10:22:56.926Z,100797.53
2023-02-22T10:25:27.896Z,100799.63
2023-02-22T10:28:27.339Z,100784.72
2023-02-22T10:31:20.096Z,100791.16
2023-02-22T10:33:54.026Z,100785.34
2023-02-22T10:36:25.829Z,100775.25
2023-02-22T10:39:06.314Z,100788.47
2023-02-22T10:41:46.062Z,100783.00
2023-02-22T10:44:15.785Z,100785.09
2023-02-22T10:46:45.981Z,100787.06
2023-02-22T10:49:18.929Z,100791.31
2023-02-22T10:51:50.950Z,100783.59
2023-02-22T11:05:02.779Z,100800.00
2023-02-22T11:07:35.699Z,100805.44
2023-02-22T11:10:04.904Z,100804.34
2023-02-22T11:12:33.790Z,100798.00
2023-02-22T11:15:28.203Z,100803.25
2023-02-22T11:20:40.700Z,100783.59
2023-02-22T11:23:08.697Z,100798.91
2023-02-22T11:25:39.184Z,100794.38
2023-02-22T11:28:15.102Z,100787.94
2023-02-22T11:30:44.716Z,100797.00
2023-02-22T11:33:24.116Z,100794.44
2023-02-22T11:38:37.340Z,100800.34
2023-02-22T12:16:29.255Z,100788.41
2023-02-22T15:21:34.128Z,100817.72
2023-02-22T15:24:05.592Z,100819.53
2023-02-22T15:26:35.676Z,100822.41
2023-02-22T15:29:07.884Z,100824.13
2023-02-22T15:31:36.632Z,100827.44
2023-02-22T15:34:20.206Z,100826.25
2023-02-22T15:36:51.502Z,100830.50
2023-02-22T15:39:25.596Z,100829.69
2023-02-22T15:42:02.408Z,100837.28
2023-02-22T15:44:30.853Z,100831.41
2023-02-22T15:46:58.689Z,100835.41
2023-02-22T15:49:25.958Z,100829.69
2023-02-22T15:52:04.593Z,100835.22
2023-02-22T15:54:41.393Z,100830.25
2023-02-22T16:02:37.325Z,100828.50
2023-02-22T16:05:08.830Z,100833.22
2023-02-22T16:07:42.123Z,100831.78
2023-02-22T16:10:25.937Z,100835.59
2023-02-22T16:18:41.695Z,100826.97
2023-02-22T16:24:31.297Z,100830.88
2023-02-22T16:32:30.524Z,100836.75
2023-02-22T16:34:57.902Z,100839.81
2023-02-22T16:55:02.087Z,100858.25
2023-02-22T16:57:32.394Z,100859.34
2023-02-22T16:59:59.350Z,100857.13
2023-02-22T17:02:27.963Z,100855.56
2023-02-22T17:04:54.954Z,100854.63
2023-02-22T17:07:30.933Z,100848.72
2023-02-22T17:10:01.170Z,100861.78
2023-02-22T17:12:32.178Z,100855.81
2023-02-22T17:14:59.242Z,100859.22
2023-02-22T17:17:26.649Z,100862.97
2023-02-22T17:19:55.054Z,100860.53
2023-02-22T17:22:22.994Z,100848.34
2023-02-22T17:24:52.358Z,100858.41
2023-02-22T17:27:19.464Z,100855.94
2023-02-22T17:30:00.645Z,100865.66
2023-02-22T17:32:27.651Z,100866.81
2023-02-22T17:34:54.821Z,100877.44
2023-02-22T17:37:24.665Z,100869.81
2023-02-22T17:39:53.859Z,100868.22
2023-02-22T17:42:27.848Z,100872.16
2023-02-22T17:44:57.187Z,100881.66
2023-02-22T17:47:25.657Z,100875.44
2023-02-22T17:49:52.931Z,100881.41
2023-02-22T17:52:19.945Z,100882.94
2023-02-22T17:54:46.944Z,100887.97
2023-02-22T17:57:13.797Z,100890.63
2023-02-22T17:59:41.065Z,100890.63
2023-02-22T18:02:08.511Z,100887.16
2023-02-22T18:04:38.305Z,100896.47
2023-02-22T18:07:05.585Z,100890.25
2023-02-22T18:09:32.740Z,100887.72
2023-02-22T18:11:59.770Z,100894.25
2023-02-22T18:14:26.990Z,100893.44
2023-02-22T18:16:54.036Z,100896.25
2023-02-22T18:19:23.367Z,100894.25
2023-02-22T18:21:52.601Z,100895.19
2023-02-22T18:24:19.770Z,100891.69
2023-02-22T18:26:47.762Z,100896.94
2023-02-22T18:29:15.112Z,100897.28
2023-02-22T18:31:45.699Z,100897.75
2023-02-22T18:34:13.206Z,100900.81
2023-02-22T18:36:40.374Z,100902.22
2023-02-22T18:39:11.884Z,100901.03
2023-02-22T18:41:39.257Z,100901.97
2023-02-22T18:44:06.995Z,100900.81
2023-02-22T18:46:34.070Z,100905.25
2023-02-22T18:49:01.103Z,100907.34
2023-02-22T18:51:28.453Z,100903.72
2023-02-22T18:54:00.414Z,100912.47
2023-02-22T18:56:30.255Z,100910.88
2023-02-22T18:58:59.152Z,100919.72
2023-02-22T19:01:26.886Z,100915.63
2023-02-22T19:03:54.079Z,100919.00
2023-02-22T19:06:24.748Z,100905.03
2023-02-22T19:08:51.881Z,100914.59
2023-02-22T19:11:21.955Z,100904.44
2023-02-22T19:13:52.464Z,100907.47
2023-02-22T19:16:21.596Z,100912.06
2023-02-22T19:18:49.855Z,100909.72
2023-02-22T19:21:17.046Z,100911.34
2023-02-22T19:23:48.258Z,100908.19
2023-02-22T19:26:20.650Z,100910.53
2023-02-22T19:28:48.701Z,100908.31
2023-02-22T19:31:21.969Z,100915.34
2023-02-22T19:33:53.332Z,100916.59
2023-02-22T19:36:23.235Z,100918.25
2023-02-22T19:38:50.392Z,100917.41
2023-02-22T19:41:19.311Z,100917.06
2023-02-22T19:43:47.639Z,100914.50
2023-02-22T19:46:19.184Z,100913.91
2023-02-22T19:48:46.184Z,100911.59
2023-02-22T19:51:15.034Z,100911.34
2023-02-22T19:53:42.889Z,100915.91
2023-02-22T19:56:11.228Z,100914.75
2023-02-22T19:58:39.491Z,100922.91
2023-02-22T20:01:13.823Z,100918.81
2023-02-22T20:11:48.168Z,100905.97
2023-02-22T20:14:18.179Z,100909.72
2023-02-22T20:16:45.510Z,100909.00
2023-02-22T20:19:13.961Z,100908.78
2023-02-22T20:21:40.893Z,100918.72
2023-02-22T20:24:10.806Z,100920.47
2023-02-22T20:26:39.623Z,100925.81
2023-02-22T20:59:37.195Z,100919.91
2023-02-22T21:02:04.318Z,100928.84
2023-02-22T21:04:33.159Z,100919.16
2023-02-22T21:07:03.347Z,100925.13
2023-02-22T21:09:32.495Z,100926.53
2023-02-22T21:11:59.492Z,100931.44
2023-02-22T21:14:26.432Z,100926.19
2023-02-22T21:16:55.368Z,100926.53
2023-02-22T21:19:25.990Z,100921.25
2023-02-22T21:21:55.110Z,100925.13
2023-02-22T21:24:22.939Z,100926.63
2023-02-22T21:26:50.539Z,100925.34
2023-02-22T21:29:18.091Z,100926.16
2023-02-22T21:31:46.574Z,100923.50
2023-02-22T21:34:17.894Z,100921.53
2023-02-22T21:36:48.196Z,100932.34
2023-02-22T21:39:19.338Z,100929.91
2023-02-22T21:41:49.457Z,100925.47
2023-02-22T21:44:19.230Z,100929.56
2023-02-22T21:46:49.977Z,100930.97
2023-02-22T21:49:24.323Z,100929.44
2023-02-22T21:51:53.524Z,100937.94
2023-02-22T21:54:23.605Z,100933.16
2023-02-22T21:56:52.027Z,100937.03
2023-02-22T21:59:24.200Z,100931.66
2023-02-22T22:01:56.428Z,100939.50
2023-02-22T22:04:27.937Z,100938.53
2023-02-22T22:06:58.952Z,100942.50
2023-02-22T22:09:33.984Z,100934.94
2023-02-22T22:12:11.050Z,100935.63
2023-02-22T22:14:39.081Z,100932.00
2023-02-22T22:17:11.813Z,100935.41
2023-02-22T22:19:52.749Z,100936.78
2023-02-22T22:22:20.939Z,100932.91
2023-02-22T22:24:49.317Z,100937.31
2023-02-22T22:27:17.961Z,100939.78
2023-02-22T22:29:45.844Z,100938.97
2023-02-22T22:32:16.800Z,100938.28
2023-02-22T22:34:58.714Z,100938.00
2023-02-22T22:37:28.541Z,100938.91
2023-02-22T22:40:04.656Z,100942.56
2023-02-22T22:42:33.255Z,100940.56
2023-02-22T22:45:12.550Z,100936.13
2023-02-22T22:47:46.692Z,100936.50
2023-02-22T22:50:19.353Z,100940.69
2023-02-22T22:52:47.815Z,100941.03
2023-02-22T22:55:16.885Z,100935.53
2023-02-22T22:57:44.462Z,100941.38
2023-02-22T23:00:38.013Z,100937.63
2023-02-22T23:03:07.213Z,100947.31
2023-02-22T23:05:45.171Z,100942.19
2023-02-22T23:08:14.444Z,100949.56
2023-02-22T23:10:41.934Z,100952.38
2023-02-22T23:13:10.284Z,100954.41
2023-02-22T23:15:42.855Z,100943.22
2023-02-22T23:18:10.164Z,100958.19
2023-02-22T23:20:39.093Z,100949.41
2023-02-22T23:23:06.302Z,100947.31
2023-02-22T23:25:33.621Z,100950.69
2023-02-22T23:28:00.636Z,100955.13
2023-02-22T23:30:27.746Z,100949.28
2023-02-22T23:32:54.791Z,100960.94
2023-02-22T23:35:21.726Z,100955.13
2023-02-22T23:37:57.990Z,100960.03
2023-02-22T23:40:26.030Z,100957.22
2023-02-22T23:42:56.700Z,100955.97
2023-02-22T23:45:24.631Z,100954.91
2023-02-22T23:47:55.007Z,100960.38
2023-02-22T23:50:23.740Z,100963.38
2023-02-22T23:52:57.134Z,100962.00
2023-02-22T23:55:24.890Z,100957.69
2023-02-22T23:57:52.014Z,100961.78
